sensor_id;sensor_type;location;lat;lon;timestamp;P1;durP1;ratioP1;P2;durP2;ratioP2
20391;SDS011;10355;53.688;10.078;2023-09-08T00:01:55;6.82;;;4.60;;
20391;SDS011;10355;53.688;10.078;2023-09-08T00:04:39;5.28;;;3.85;;
20391;SDS011;10355;53.688;10.078;2023-09-08T00:07:22;6.35;;;4.00;;
20391;SDS011;10355;53.688;10.078;2023-09-08T00:10:05;6.13;;;3.92;;
20391;SDS011;10355;53.688;10.078;2023-09-08T00:12:48;5.40;;;3.85;;
20391;SDS011;10355;53.688;10.078;2023-09-08T00:15:33;6.55;;;4.05;;
20391;SDS011;10355;53.688;10.078;2023-09-08T00:18:15;6.32;;;4.20;;
20391;SDS011;10355;53.688;10.078;2023-09-08T00:20:59;6.97;;;4.18;;
20391;SDS011;10355;53.688;10.078;2023-09-08T00:23:42;6.25;;;3.95;;
20391;SDS011;10355;53.688;10.078;2023-09-08T00:26:25;5.97;;;4.18;;
20391;SDS011;10355;53.688;10.078;2023-09-08T00:29:07;5.22;;;3.95;;
20391;SDS011;10355;53.688;10.078;2023-09-08T00:31:50;6.50;;;4.30;;
20391;SDS011;10355;53.688;10.078;2023-09-08T00:34:33;5.07;;;3.88;;
20391;SDS011;10355;53.688;10.078;2023-09-08T00:37:17;5.63;;;3.83;;
20391;SDS011;10355;53.688;10.078;2023-09-08T00:39:59;6.35;;;3.80;;
20391;SDS011;10355;53.688;10.078;2023-09-08T00:42:42;4.97;;;3.88;;
20391;SDS011;10355;53.688;10.078;2023-09-08T00:45:25;6.13;;;3.85;;
20391;SDS011;10355;53.688;10.078;2023-09-08T00:48:09;4.60;;;3.75;;
20391;SDS011;10355;53.688;10.078;2023-09-08T00:50:52;5.85;;;3.90;;
20391;SDS011;10355;53.688;10.078;2023-09-08T00:53:36;6.93;;;4.00;;
20391;SDS011;10355;53.688;10.078;2023-09-08T00:56:18;8.07;;;4.22;;
20391;SDS011;10355;53.688;10.078;2023-09-08T00:59:01;6.88;;;4.13;;
20391;SDS011;10355;53.688;10.078;2023-09-08T01:01:45;6.47;;;3.90;;
20391;SDS011;10355;53.688;10.078;2023-09-08T01:04:27;5.88;;;4.22;;
20391;SDS011;10355;53.688;10.078;2023-09-08T01:07:11;6.47;;;4.05;;
20391;SDS011;10355;53.688;10.078;2023-09-08T01:09:56;5.18;;;3.55;;
20391;SDS011;10355;53.688;10.078;2023-09-08T01:12:44;5.90;;;3.55;;
20391;SDS011;10355;53.688;10.078;2023-09-08T01:15:27;7.68;;;3.72;;
20391;SDS011;10355;53.688;10.078;2023-09-08T01:18:10;5.25;;;4.10;;
20391;SDS011;10355;53.688;10.078;2023-09-08T01:21:03;5.85;;;4.13;;
20391;SDS011;10355;53.688;10.078;2023-09-08T01:23:59;6.30;;;4.00;;
20391;SDS011;10355;53.688;10.078;2023-09-08T01:26:45;6.07;;;4.22;;
20391;SDS011;10355;53.688;10.078;2023-09-08T01:29:28;6.20;;;4.70;;
20391;SDS011;10355;53.688;10.078;2023-09-08T01:32:11;6.70;;;4.30;;
20391;SDS011;10355;53.688;10.078;2023-09-08T01:34:54;6.95;;;4.13;;
20391;SDS011;10355;53.688;10.078;2023-09-08T01:37:39;6.40;;;3.80;;
20391;SDS011;10355;53.688;10.078;2023-09-08T01:40:22;9.10;;;4.38;;
20391;SDS011;10355;53.688;10.078;2023-09-08T01:43:06;9.77;;;3.90;;
20391;SDS011;10355;53.688;10.078;2023-09-08T01:45:48;5.05;;;3.80;;
20391;SDS011;10355;53.688;10.078;2023-09-08T01:48:31;8.35;;;4.15;;
20391;SDS011;10355;53.688;10.078;2023-09-08T01:51:14;6.85;;;4.35;;
20391;SDS011;10355;53.688;10.078;2023-09-08T01:53:57;8.45;;;4.30;;
20391;SDS011;10355;53.688;10.078;2023-09-08T01:56:40;7.30;;;4.00;;
20391;SDS011;10355;53.688;10.078;2023-09-08T01:59:24;5.72;;;3.90;;
20391;SDS011;10355;53.688;10.078;2023-09-08T02:02:06;5.30;;;4.28;;
20391;SDS011;10355;53.688;10.078;2023-09-08T02:04:49;5.82;;;3.90;;
20391;SDS011;10355;53.688;10.078;2023-09-08T02:07:32;5.30;;;4.10;;
20391;SDS011;10355;53.688;10.078;2023-09-08T02:10:15;8.55;;;4.55;;
20391;SDS011;10355;53.688;10.078;2023-09-08T02:12:58;5.47;;;4.18;;
20391;SDS011;10355;53.688;10.078;2023-09-08T02:15:42;7.53;;;4.30;;
20391;SDS011;10355;53.688;10.078;2023-09-08T02:18:25;5.22;;;3.97;;
20391;SDS011;10355;53.688;10.078;2023-09-08T02:21:09;7.18;;;4.13;;
20391;SDS011;10355;53.688;10.078;2023-09-08T02:23:52;8.80;;;4.38;;
20391;SDS011;10355;53.688;10.078;2023-09-08T02:26:35;7.35;;;4.20;;
20391;SDS011;10355;53.688;10.078;2023-09-08T02:29:18;7.40;;;4.35;;
20391;SDS011;10355;53.688;10.078;2023-09-08T02:32:02;5.95;;;3.83;;
20391;SDS011;10355;53.688;10.078;2023-09-08T02:34:45;5.95;;;4.10;;
20391;SDS011;10355;53.688;10.078;2023-09-08T02:37:29;5.30;;;3.90;;
20391;SDS011;10355;53.688;10.078;2023-09-08T02:40:12;5.38;;;4.13;;
20391;SDS011;10355;53.688;10.078;2023-09-08T02:42:55;7.15;;;4.32;;
20391;SDS011;10355;53.688;10.078;2023-09-08T02:45:38;7.18;;;4.15;;
20391;SDS011;10355;53.688;10.078;2023-09-08T02:48:22;6.47;;;4.22;;
20391;SDS011;10355;53.688;10.078;2023-09-08T02:51:05;6.20;;;4.05;;
20391;SDS011;10355;53.688;10.078;2023-09-08T02:53:47;6.80;;;3.88;;
20391;SDS011;10355;53.688;10.078;2023-09-08T02:56:30;5.40;;;4.05;;
20391;SDS011;10355;53.688;10.078;2023-09-08T02:59:13;6.63;;;4.10;;
20391;SDS011;10355;53.688;10.078;2023-09-08T03:01:56;6.45;;;4.05;;
20391;SDS011;10355;53.688;10.078;2023-09-08T03:04:40;7.35;;;4.22;;
20391;SDS011;10355;53.688;10.078;2023-09-08T03:07:23;6.45;;;3.97;;
20391;SDS011;10355;53.688;10.078;2023-09-08T03:10:06;4.78;;;3.50;;
20391;SDS011;10355;53.688;10.078;2023-09-08T03:12:50;6.82;;;3.90;;
20391;SDS011;10355;53.688;10.078;2023-09-08T03:15:33;5.53;;;3.80;;
20391;SDS011;10355;53.688;10.078;2023-09-08T03:18:16;5.75;;;4.10;;
20391;SDS011;10355;53.688;10.078;2023-09-08T03:21:00;6.38;;;3.90;;
20391;SDS011;10355;53.688;10.078;2023-09-08T03:23:51;6.60;;;4.20;;
20391;SDS011;10355;53.688;10.078;2023-09-08T03:26:34;6.15;;;4.10;;
20391;SDS011;10355;53.688;10.078;2023-09-08T03:29:17;6.97;;;4.22;;
20391;SDS011;10355;53.688;10.078;2023-09-08T03:31:59;7.88;;;4.13;;
20391;SDS011;10355;53.688;10.078;2023-09-08T03:34:43;5.97;;;4.07;;
20391;SDS011;10355;53.688;10.078;2023-09-08T03:37:27;8.15;;;4.15;;
20391;SDS011;10355;53.688;10.078;2023-09-08T03:40:10;4.72;;;3.63;;
20391;SDS011;10355;53.688;10.078;2023-09-08T03:42:53;7.03;;;4.15;;
20391;SDS011;10355;53.688;10.078;2023-09-08T03:45:35;9.40;;;4.22;;
20391;SDS011;10355;53.688;10.078;2023-09-08T03:48:18;5.68;;;3.95;;
20391;SDS011;10355;53.688;10.078;2023-09-08T03:51:01;5.80;;;3.90;;
20391;SDS011;10355;53.688;10.078;2023-09-08T03:53:45;6.55;;;3.95;;
20391;SDS011;10355;53.688;10.078;2023-09-08T03:56:27;6.03;;;4.03;;
20391;SDS011;10355;53.688;10.078;2023-09-08T03:59:10;5.97;;;4.10;;
20391;SDS011;10355;53.688;10.078;2023-09-08T04:01:53;6.13;;;3.95;;
20391;SDS011;10355;53.688;10.078;2023-09-08T04:04:36;5.43;;;4.07;;
20391;SDS011;10355;53.688;10.078;2023-09-08T04:07:18;10.45;;;3.88;;
20391;SDS011;10355;53.688;10.078;2023-09-08T04:10:03;5.80;;;3.88;;
20391;SDS011;10355;53.688;10.078;2023-09-08T04:12:46;6.53;;;4.53;;
20391;SDS011;10355;53.688;10.078;2023-09-08T04:15:29;7.63;;;3.90;;
20391;SDS011;10355;53.688;10.078;2023-09-08T04:18:11;7.43;;;4.03;;
20391;SDS011;10355;53.688;10.078;2023-09-08T04:20:54;6.90;;;3.80;;
20391;SDS011;10355;53.688;10.078;2023-09-08T04:23:37;5.78;;;3.90;;
20391;SDS011;10355;53.688;10.078;2023-09-08T04:26:21;7.28;;;4.10;;
20391;SDS011;10355;53.688;10.078;2023-09-08T04:29:03;6.22;;;3.83;;
20391;SDS011;10355;53.688;10.078;2023-09-08T04:31:46;5.18;;;3.78;;
20391;SDS011;10355;53.688;10.078;2023-09-08T04:34:29;6.57;;;4.20;;
20391;SDS011;10355;53.688;10.078;2023-09-08T04:37:12;5.45;;;3.90;;
20391;SDS011;10355;53.688;10.078;2023-09-08T04:39:56;5.75;;;3.83;;
20391;SDS011;10355;53.688;10.078;2023-09-08T04:42:40;5.97;;;4.40;;
20391;SDS011;10355;53.688;10.078;2023-09-08T04:45:23;7.43;;;4.30;;
20391;SDS011;10355;53.688;10.078;2023-09-08T04:48:06;7.10;;;4.20;;
20391;SDS011;10355;53.688;10.078;2023-09-08T04:50:49;7.72;;;4.35;;
20391;SDS011;10355;53.688;10.078;2023-09-08T04:53:33;6.95;;;4.32;;
20391;SDS011;10355;53.688;10.078;2023-09-08T04:56:18;4.95;;;4.00;;
20391;SDS011;10355;53.688;10.078;2023-09-08T04:59:02;8.07;;;4.40;;
20391;SDS011;10355;53.688;10.078;2023-09-08T05:01:45;7.05;;;4.47;;
20391;SDS011;10355;53.688;10.078;2023-09-08T05:04:28;7.13;;;4.28;;
20391;SDS011;10355;53.688;10.078;2023-09-08T05:07:11;7.22;;;4.57;;
20391;SDS011;10355;53.688;10.078;2023-09-08T05:09:55;9.57;;;5.18;;
20391;SDS011;10355;53.688;10.078;2023-09-08T05:12:42;6.65;;;4.95;;
20391;SDS011;10355;53.688;10.078;2023-09-08T05:15:26;8.45;;;4.55;;
20391;SDS011;10355;53.688;10.078;2023-09-08T05:18:09;7.43;;;4.95;;
20391;SDS011;10355;53.688;10.078;2023-09-08T05:20:52;8.23;;;4.97;;
20391;SDS011;10355;53.688;10.078;2023-09-08T05:23:35;8.52;;;5.32;;
20391;SDS011;10355;53.688;10.078;2023-09-08T05:26:18;10.70;;;5.25;;
20391;SDS011;10355;53.688;10.078;2023-09-08T05:29:00;10.55;;;5.43;;
20391;SDS011;10355;53.688;10.078;2023-09-08T05:31:44;8.63;;;5.15;;
20391;SDS011;10355;53.688;10.078;2023-09-08T05:34:28;8.30;;;5.03;;
20391;SDS011;10355;53.688;10.078;2023-09-08T05:37:10;9.27;;;4.95;;
20391;SDS011;10355;53.688;10.078;2023-09-08T05:39:53;8.27;;;5.10;;
20391;SDS011;10355;53.688;10.078;2023-09-08T05:42:36;7.68;;;4.93;;
20391;SDS011;10355;53.688;10.078;2023-09-08T05:45:18;7.60;;;5.10;;
20391;SDS011;10355;53.688;10.078;2023-09-08T05:48:03;7.07;;;4.95;;
20391;SDS011;10355;53.688;10.078;2023-09-08T05:50:46;7.15;;;5.22;;
20391;SDS011;10355;53.688;10.078;2023-09-08T05:53:29;8.35;;;5.10;;
20391;SDS011;10355;53.688;10.078;2023-09-08T05:56:12;6.40;;;4.93;;
20391;SDS011;10355;53.688;10.078;2023-09-08T05:58:57;10.77;;;4.88;;
20391;SDS011;10355;53.688;10.078;2023-09-08T06:01:40;8.68;;;5.47;;
20391;SDS011;10355;53.688;10.078;2023-09-08T06:04:25;7.93;;;4.45;;
20391;SDS011;10355;53.688;10.078;2023-09-08T06:07:08;8.50;;;5.13;;
20391;SDS011;10355;53.688;10.078;2023-09-08T06:09:51;7.30;;;4.45;;
20391;SDS011;10355;53.688;10.078;2023-09-08T06:12:34;8.30;;;5.00;;
20391;SDS011;10355;53.688;10.078;2023-09-08T06:15:16;7.63;;;4.72;;
20391;SDS011;10355;53.688;10.078;2023-09-08T06:17:59;6.95;;;4.57;;
20391;SDS011;10355;53.688;10.078;2023-09-08T06:20:45;11.07;;;4.93;;
20391;SDS011;10355;53.688;10.078;2023-09-08T06:23:29;8.10;;;5.10;;
20391;SDS011;10355;53.688;10.078;2023-09-08T06:26:12;7.32;;;4.53;;
20391;SDS011;10355;53.688;10.078;2023-09-08T06:28:55;8.50;;;4.90;;
20391;SDS011;10355;53.688;10.078;2023-09-08T06:31:38;6.68;;;4.53;;
20391;SDS011;10355;53.688;10.078;2023-09-08T06:34:20;9.55;;;4.90;;
20391;SDS011;10355;53.688;10.078;2023-09-08T06:37:06;9.68;;;5.13;;
20391;SDS011;10355;53.688;10.078;2023-09-08T06:39:49;7.13;;;5.07;;
20391;SDS011;10355;53.688;10.078;2023-09-08T06:42:33;8.05;;;4.78;;
20391;SDS011;10355;53.688;10.078;2023-09-08T06:45:25;8.10;;;5.13;;
20391;SDS011;10355;53.688;10.078;2023-09-08T06:48:08;7.53;;;4.80;;
20391;SDS011;10355;53.688;10.078;2023-09-08T06:50:52;7.38;;;4.80;;
20391;SDS011;10355;53.688;10.078;2023-09-08T06:53:37;8.18;;;5.00;;
20391;SDS011;10355;53.688;10.078;2023-09-08T06:56:20;9.82;;;4.80;;
20391;SDS011;10355;53.688;10.078;2023-09-08T06:59:05;8.60;;;4.82;;
20391;SDS011;10355;53.688;10.078;2023-09-08T07:01:48;7.53;;;4.63;;
20391;SDS011;10355;53.688;10.078;2023-09-08T07:04:32;7.57;;;4.72;;
20391;SDS011;10355;53.688;10.078;2023-09-08T07:07:15;6.90;;;4.40;;
20391;SDS011;10355;53.688;10.078;2023-09-08T07:10:02;10.07;;;4.82;;
20391;SDS011;10355;53.688;10.078;2023-09-08T07:12:45;8.02;;;4.68;;
20391;SDS011;10355;53.688;10.078;2023-09-08T07:15:29;8.93;;;5.15;;
20391;SDS011;10355;53.688;10.078;2023-09-08T07:18:11;8.50;;;4.63;;
20391;SDS011;10355;53.688;10.078;2023-09-08T07:20:54;8.18;;;4.80;;
20391;SDS011;10355;53.688;10.078;2023-09-08T07:23:38;8.18;;;4.90;;
20391;SDS011;10355;53.688;10.078;2023-09-08T07:26:24;9.57;;;5.57;;
20391;SDS011;10355;53.688;10.078;2023-09-08T07:29:06;9.57;;;4.70;;
20391;SDS011;10355;53.688;10.078;2023-09-08T07:31:50;8.23;;;4.80;;
20391;SDS011;10355;53.688;10.078;2023-09-08T07:34:33;8.00;;;4.68;;
20391;SDS011;10355;53.688;10.078;2023-09-08T07:37:16;8.85;;;4.70;;
20391;SDS011;10355;53.688;10.078;2023-09-08T07:39:59;11.20;;;5.15;;
20391;SDS011;10355;53.688;10.078;2023-09-08T07:42:43;7.72;;;4.72;;
20391;SDS011;10355;53.688;10.078;2023-09-08T07:45:27;6.95;;;4.50;;
20391;SDS011;10355;53.688;10.078;2023-09-08T07:48:09;8.07;;;4.63;;
20391;SDS011;10355;53.688;10.078;2023-09-08T07:50:52;7.55;;;4.72;;
20391;SDS011;10355;53.688;10.078;2023-09-08T07:53:35;7.10;;;4.75;;
20391;SDS011;10355;53.688;10.078;2023-09-08T07:56:18;8.15;;;5.05;;
20391;SDS011;10355;53.688;10.078;2023-09-08T07:59:02;7.82;;;4.60;;
20391;SDS011;10355;53.688;10.078;2023-09-08T08:01:45;10.43;;;5.30;;
20391;SDS011;10355;53.688;10.078;2023-09-08T08:04:28;7.75;;;4.40;;
20391;SDS011;10355;53.688;10.078;2023-09-08T08:07:10;6.93;;;4.68;;
20391;SDS011;10355;53.688;10.078;2023-09-08T08:09:53;6.80;;;4.50;;
20391;SDS011;10355;53.688;10.078;2023-09-08T08:12:36;8.30;;;4.70;;
20391;SDS011;10355;53.688;10.078;2023-09-08T08:15:20;7.40;;;4.68;;
20391;SDS011;10355;53.688;10.078;2023-09-08T08:18:04;8.18;;;4.63;;
20391;SDS011;10355;53.688;10.078;2023-09-08T08:20:47;9.32;;;4.55;;
20391;SDS011;10355;53.688;10.078;2023-09-08T08:23:29;8.52;;;4.53;;
20391;SDS011;10355;53.688;10.078;2023-09-08T08:26:13;7.88;;;4.53;;
20391;SDS011;10355;53.688;10.078;2023-09-08T08:28:56;8.98;;;4.90;;
20391;SDS011;10355;53.688;10.078;2023-09-08T08:31:40;6.97;;;4.38;;
20391;SDS011;10355;53.688;10.078;2023-09-08T08:34:23;7.35;;;4.47;;
20391;SDS011;10355;53.688;10.078;2023-09-08T08:37:06;7.18;;;4.53;;
20391;SDS011;10355;53.688;10.078;2023-09-08T08:39:48;6.88;;;4.70;;
20391;SDS011;10355;53.688;10.078;2023-09-08T08:42:31;7.93;;;4.88;;
20391;SDS011;10355;53.688;10.078;2023-09-08T08:45:14;8.02;;;4.20;;
20391;SDS011;10355;53.688;10.078;2023-09-08T08:48:02;9.52;;;4.03;;
20391;SDS011;10355;53.688;10.078;2023-09-08T08:50:46;7.32;;;4.07;;
20391;SDS011;10355;53.688;10.078;2023-09-08T08:53:29;7.03;;;3.88;;
20391;SDS011;10355;53.688;10.078;2023-09-08T08:56:13;7.18;;;4.22;;
20391;SDS011;10355;53.688;10.078;2023-09-08T08:58:56;7.70;;;4.70;;
20391;SDS011;10355;53.688;10.078;2023-09-08T09:01:40;8.23;;;4.40;;
20391;SDS011;10355;53.688;10.078;2023-09-08T09:04:25;8.45;;;4.40;;
20391;SDS011;10355;53.688;10.078;2023-09-08T09:07:08;8.82;;;4.43;;
20391;SDS011;10355;53.688;10.078;2023-09-08T09:09:50;7.15;;;4.72;;
20391;SDS011;10355;53.688;10.078;2023-09-08T09:12:33;6.75;;;4.18;;
20391;SDS011;10355;53.688;10.078;2023-09-08T09:15:27;7.78;;;4.55;;
20391;SDS011;10355;53.688;10.078;2023-09-08T09:18:10;7.18;;;4.22;;
20391;SDS011;10355;53.688;10.078;2023-09-08T09:20:54;7.55;;;4.18;;
20391;SDS011;10355;53.688;10.078;2023-09-08T09:23:37;6.00;;;4.25;;
20391;SDS011;10355;53.688;10.078;2023-09-08T09:26:23;3.30;;;2.40;;
20391;SDS011;10355;53.688;10.078;2023-09-08T09:29:06;2.58;;;1.20;;
20391;SDS011;10355;53.688;10.078;2023-09-08T09:31:54;1.60;;;0.98;;
20391;SDS011;10355;53.688;10.078;2023-09-08T09:34:40;1.13;;;1.02;;
20391;SDS011;10355;53.688;10.078;2023-09-08T09:37:30;1.05;;;0.95;;
20391;SDS011;10355;53.688;10.078;2023-09-08T09:40:13;1.42;;;1.00;;
20391;SDS011;10355;53.688;10.078;2023-09-08T09:42:56;1.65;;;0.95;;
20391;SDS011;10355;53.688;10.078;2023-09-08T09:45:40;1.33;;;1.00;;
20391;SDS011;10355;53.688;10.078;2023-09-08T09:48:23;1.45;;;1.05;;
20391;SDS011;10355;53.688;10.078;2023-09-08T09:51:15;0.80;;;0.75;;
20391;SDS011;10355;53.688;10.078;2023-09-08T09:53:59;0.90;;;0.73;;
20391;SDS011;10355;53.688;10.078;2023-09-08T09:56:46;1.00;;;0.80;;
20391;SDS011;10355;53.688;10.078;2023-09-08T09:59:32;0.93;;;0.70;;
20391;SDS011;10355;53.688;10.078;2023-09-08T10:02:16;1.05;;;0.70;;
20391;SDS011;10355;53.688;10.078;2023-09-08T10:05:10;1.83;;;1.00;;
20391;SDS011;10355;53.688;10.078;2023-09-08T10:07:52;1.02;;;0.90;;
20391;SDS011;10355;53.688;10.078;2023-09-08T10:10:36;0.75;;;0.63;;
20391;SDS011;10355;53.688;10.078;2023-09-08T10:13:23;1.02;;;0.80;;
20391;SDS011;10355;53.688;10.078;2023-09-08T10:16:08;1.00;;;0.80;;
20391;SDS011;10355;53.688;10.078;2023-09-08T10:18:56;1.30;;;0.80;;
20391;SDS011;10355;53.688;10.078;2023-09-08T10:21:41;1.13;;;0.90;;
20391;SDS011;10355;53.688;10.078;2023-09-08T10:24:25;1.50;;;1.00;;
20391;SDS011;10355;53.688;10.078;2023-09-08T10:27:10;1.50;;;1.20;;
20391;SDS011;10355;53.688;10.078;2023-09-08T10:29:53;0.98;;;0.70;;
20391;SDS011;10355;53.688;10.078;2023-09-08T10:32:36;1.42;;;0.85;;
20391;SDS011;10355;53.688;10.078;2023-09-08T10:35:19;1.02;;;0.90;;
20391;SDS011;10355;53.688;10.078;2023-09-08T10:44:08;1.10;;;0.80;;
20391;SDS011;10355;53.688;10.078;2023-09-08T10:46:51;1.35;;;0.88;;
20391;SDS011;10355;53.688;10.078;2023-09-08T10:49:34;0.95;;;0.85;;
20391;SDS011;10355;53.688;10.078;2023-09-08T10:52:17;0.90;;;0.65;;
20391;SDS011;10355;53.688;10.078;2023-09-08T10:55:03;1.10;;;0.88;;
20391;SDS011;10355;53.688;10.078;2023-09-08T10:57:49;1.13;;;0.90;;
20391;SDS011;10355;53.688;10.078;2023-09-08T11:00:44;0.60;;;0.60;;
20391;SDS011;10355;53.688;10.078;2023-09-08T11:03:27;1.30;;;0.88;;
20391;SDS011;10355;53.688;10.078;2023-09-08T11:06:11;1.02;;;0.70;;
20391;SDS011;10355;53.688;10.078;2023-09-08T11:08:54;1.40;;;0.90;;
20391;SDS011;10355;53.688;10.078;2023-09-08T11:11:38;0.90;;;0.80;;
20391;SDS011;10355;53.688;10.078;2023-09-08T11:14:21;1.70;;;1.00;;
20391;SDS011;10355;53.688;10.078;2023-09-08T11:17:05;1.05;;;0.90;;
20391;SDS011;10355;53.688;10.078;2023-09-08T11:19:48;0.68;;;0.60;;
20391;SDS011;10355;53.688;10.078;2023-09-08T11:22:31;1.30;;;0.80;;
20391;SDS011;10355;53.688;10.078;2023-09-08T11:25:13;1.00;;;0.80;;
20391;SDS011;10355;53.688;10.078;2023-09-08T11:27:56;0.95;;;0.88;;
20391;SDS011;10355;53.688;10.078;2023-09-08T11:30:39;0.70;;;0.70;;
20391;SDS011;10355;53.688;10.078;2023-09-08T11:33:24;1.00;;;0.80;;
20391;SDS011;10355;53.688;10.078;2023-09-08T11:36:11;0.70;;;0.63;;
20391;SDS011;10355;53.688;10.078;2023-09-08T11:38:53;1.10;;;0.90;;
20391;SDS011;10355;53.688;10.078;2023-09-08T11:41:36;0.80;;;0.70;;
20391;SDS011;10355;53.688;10.078;2023-09-08T11:44:19;1.10;;;0.80;;
20391;SDS011;10355;53.688;10.078;2023-09-08T11:47:02;2.78;;;0.90;;
20391;SDS011;10355;53.688;10.078;2023-09-08T11:49:47;1.42;;;0.90;;
20391;SDS011;10355;53.688;10.078;2023-09-08T11:52:30;0.85;;;0.73;;
20391;SDS011;10355;53.688;10.078;2023-09-08T11:55:13;1.02;;;0.90;;
20391;SDS011;10355;53.688;10.078;2023-09-08T11:57:57;1.20;;;0.93;;
20391;SDS011;10355;53.688;10.078;2023-09-08T12:00:42;0.95;;;0.80;;
20391;SDS011;10355;53.688;10.078;2023-09-08T12:03:26;0.98;;;0.80;;
20391;SDS011;10355;53.688;10.078;2023-09-08T12:06:12;1.33;;;0.90;;
20391;SDS011;10355;53.688;10.078;2023-09-08T12:08:56;1.40;;;1.10;;
20391;SDS011;10355;53.688;10.078;2023-09-08T12:11:44;1.05;;;0.95;;
20391;SDS011;10355;53.688;10.078;2023-09-08T12:14:29;1.27;;;0.82;;
20391;SDS011;10355;53.688;10.078;2023-09-08T12:17:13;1.38;;;0.88;;
20391;SDS011;10355;53.688;10.078;2023-09-08T12:19:59;1.10;;;0.80;;
20391;SDS011;10355;53.688;10.078;2023-09-08T12:22:50;0.90;;;0.73;;
20391;SDS011;10355;53.688;10.078;2023-09-08T12:25:33;0.90;;;0.77;;
20391;SDS011;10355;53.688;10.078;2023-09-08T12:28:29;1.17;;;0.82;;
20391;SDS011;10355;53.688;10.078;2023-09-08T12:31:13;1.23;;;0.85;;
20391;SDS011;10355;53.688;10.078;2023-09-08T12:33:56;3.13;;;2.20;;
20391;SDS011;10355;53.688;10.078;2023-09-08T12:36:43;3.78;;;2.53;;
20391;SDS011;10355;53.688;10.078;2023-09-08T12:39:27;4.32;;;2.38;;
20391;SDS011;10355;53.688;10.078;2023-09-08T12:42:11;4.05;;;2.75;;
20391;SDS011;10355;53.688;10.078;2023-09-08T12:44:53;1.77;;;1.15;;
20391;SDS011;10355;53.688;10.078;2023-09-08T12:47:36;1.52;;;0.90;;
20391;SDS011;10355;53.688;10.078;2023-09-08T12:50:19;1.60;;;0.90;;
20391;SDS011;10355;53.688;10.078;2023-09-08T12:53:02;1.13;;;0.70;;
20391;SDS011;10355;53.688;10.078;2023-09-08T12:55:46;1.15;;;0.73;;
20391;SDS011;10355;53.688;10.078;2023-09-08T12:58:28;1.20;;;0.75;;
20391;SDS011;10355;53.688;10.078;2023-09-08T13:01:11;1.17;;;0.80;;
20391;SDS011;10355;53.688;10.078;2023-09-08T13:03:54;1.05;;;0.77;;
20391;SDS011;10355;53.688;10.078;2023-09-08T13:06:37;0.88;;;0.70;;
20391;SDS011;10355;53.688;10.078;2023-09-08T13:09:20;1.30;;;0.60;;
20391;SDS011;10355;53.688;10.078;2023-09-08T13:12:05;1.50;;;0.82;;
20391;SDS011;10355;53.688;10.078;2023-09-08T13:14:47;1.65;;;0.60;;
20391;SDS011;10355;53.688;10.078;2023-09-08T13:17:30;0.75;;;0.63;;
20391;SDS011;10355;53.688;10.078;2023-09-08T13:20:13;0.98;;;0.73;;
20391;SDS011;10355;53.688;10.078;2023-09-08T13:22:56;1.83;;;0.90;;
20391;SDS011;10355;53.688;10.078;2023-09-08T13:25:39;1.98;;;0.70;;
20391;SDS011;10355;53.688;10.078;2023-09-08T13:28:24;1.30;;;0.70;;
20391;SDS011;10355;53.688;10.078;2023-09-08T13:31:07;1.10;;;0.70;;
20391;SDS011;10355;53.688;10.078;2023-09-08T13:33:50;1.55;;;0.77;;
20391;SDS011;10355;53.688;10.078;2023-09-08T13:36:32;1.02;;;0.65;;
20391;SDS011;10355;53.688;10.078;2023-09-08T13:39:15;1.13;;;0.90;;
20391;SDS011;10355;53.688;10.078;2023-09-08T13:41:59;0.55;;;0.50;;
20391;SDS011;10355;53.688;10.078;2023-09-08T13:44:43;0.93;;;0.70;;
20391;SDS011;10355;53.688;10.078;2023-09-08T13:47:27;0.57;;;0.55;;
20391;SDS011;10355;53.688;10.078;2023-09-08T13:50:10;0.95;;;0.75;;
20391;SDS011;10355;53.688;10.078;2023-09-08T13:52:55;0.80;;;0.63;;
20391;SDS011;10355;53.688;10.078;2023-09-08T13:55:39;0.80;;;0.70;;
20391;SDS011;10355;53.688;10.078;2023-09-08T13:58:24;0.63;;;0.60;;
20391;SDS011;10355;53.688;10.078;2023-09-08T14:01:10;0.80;;;0.60;;
20391;SDS011;10355;53.688;10.078;2023-09-08T14:03:54;1.00;;;0.60;;
20391;SDS011;10355;53.688;10.078;2023-09-08T14:06:40;0.90;;;0.65;;
20391;SDS011;10355;53.688;10.078;2023-09-08T14:09:31;0.77;;;0.63;;
20391;SDS011;10355;53.688;10.078;2023-09-08T14:12:33;0.50;;;0.50;;
20391;SDS011;10355;53.688;10.078;2023-09-08T14:15:16;1.30;;;0.98;;
20391;SDS011;10355;53.688;10.078;2023-09-08T14:18:00;0.98;;;0.70;;
20391;SDS011;10355;53.688;10.078;2023-09-08T14:20:43;0.95;;;0.50;;
20391;SDS011;10355;53.688;10.078;2023-09-08T14:23:26;0.93;;;0.63;;
20391;SDS011;10355;53.688;10.078;2023-09-08T14:26:10;0.90;;;0.68;;
20391;SDS011;10355;53.688;10.078;2023-09-08T14:28:52;1.52;;;0.60;;
20391;SDS011;10355;53.688;10.078;2023-09-08T14:31:35;0.85;;;0.52;;
20391;SDS011;10355;53.688;10.078;2023-09-08T14:34:19;0.50;;;0.50;;
20391;SDS011;10355;53.688;10.078;2023-09-08T14:37:02;0.93;;;0.70;;
20391;SDS011;10355;53.688;10.078;2023-09-08T14:39:47;0.70;;;0.52;;
20391;SDS011;10355;53.688;10.078;2023-09-08T14:42:30;1.02;;;0.60;;
20391;SDS011;10355;53.688;10.078;2023-09-08T14:45:13;0.80;;;0.70;;
20391;SDS011;10355;53.688;10.078;2023-09-08T14:47:56;1.85;;;0.70;;
20391;SDS011;10355;53.688;10.078;2023-09-08T14:50:43;1.10;;;0.70;;
20391;SDS011;10355;53.688;10.078;2023-09-08T14:53:26;0.73;;;0.50;;
20391;SDS011;10355;53.688;10.078;2023-09-08T14:56:10;0.80;;;0.63;;
20391;SDS011;10355;53.688;10.078;2023-09-08T14:58:52;0.98;;;0.70;;
20391;SDS011;10355;53.688;10.078;2023-09-08T15:01:38;0.85;;;0.50;;
20391;SDS011;10355;53.688;10.078;2023-09-08T15:04:22;0.57;;;0.52;;
20391;SDS011;10355;53.688;10.078;2023-09-08T15:07:06;0.80;;;0.60;;
20391;SDS011;10355;53.688;10.078;2023-09-08T15:09:49;0.98;;;0.57;;
20391;SDS011;10355;53.688;10.078;2023-09-08T15:12:32;0.98;;;0.60;;
20391;SDS011;10355;53.688;10.078;2023-09-08T15:15:15;0.43;;;0.43;;
20391;SDS011;10355;53.688;10.078;2023-09-08T15:17:59;0.60;;;0.60;;
20391;SDS011;10355;53.688;10.078;2023-09-08T15:20:49;0.40;;;0.38;;
20391;SDS011;10355;53.688;10.078;2023-09-08T15:23:33;0.47;;;0.40;;
20391;SDS011;10355;53.688;10.078;2023-09-08T15:26:17;1.65;;;0.60;;
20391;SDS011;10355;53.688;10.078;2023-09-08T15:28:59;0.47;;;0.47;;
20391;SDS011;10355;53.688;10.078;2023-09-08T15:31:42;0.68;;;0.50;;
20391;SDS011;10355;53.688;10.078;2023-09-08T15:34:25;0.73;;;0.50;;
20391;SDS011;10355;53.688;10.078;2023-09-08T15:37:08;0.63;;;0.50;;
20391;SDS011;10355;53.688;10.078;2023-09-08T15:39:52;0.57;;;0.43;;
20391;SDS011;10355;53.688;10.078;2023-09-08T15:42:35;0.70;;;0.38;;
20391;SDS011;10355;53.688;10.078;2023-09-08T15:45:18;0.80;;;0.50;;
20391;SDS011;10355;53.688;10.078;2023-09-08T15:48:00;0.50;;;0.50;;
20391;SDS011;10355;53.688;10.078;2023-09-08T15:50:44;0.50;;;0.50;;
20391;SDS011;10355;53.688;10.078;2023-09-08T15:53:26;0.55;;;0.43;;
20391;SDS011;10355;53.688;10.078;2023-09-08T15:56:10;0.57;;;0.50;;
20391;SDS011;10355;53.688;10.078;2023-09-08T15:58:53;0.85;;;0.50;;
20391;SDS011;10355;53.688;10.078;2023-09-08T16:01:36;0.65;;;0.50;;
20391;SDS011;10355;53.688;10.078;2023-09-08T16:04:19;0.43;;;0.40;;
20391;SDS011;10355;53.688;10.078;2023-09-08T16:07:01;0.68;;;0.43;;
20391;SDS011;10355;53.688;10.078;2023-09-08T16:09:45;0.50;;;0.50;;
20391;SDS011;10355;53.688;10.078;2023-09-08T16:12:29;0.93;;;0.50;;
20391;SDS011;10355;53.688;10.078;2023-09-08T16:15:13;0.38;;;0.38;;
20391;SDS011;10355;53.688;10.078;2023-09-08T16:17:56;0.40;;;0.35;;